createdAt,value
2023-05-20T00:12:08.098Z,100511.13
2023-05-20T00:26:59.800Z,100501.21
2023-05-20T00:41:52.126Z,100495.01
2023-05-20T00:56:44.494Z,100505.27
2023-05-20T01:11:36.791Z,100495.78
2023-05-20T01:26:28.915Z,100502.58
2023-05-20T01:41:19.787Z,100494.32
2023-05-20T01:56:11.099Z,100487.98
2023-05-20T02:55:58.400Z,100444.63
2023-05-20T03:10:50.013Z,100453.37
2023-05-20T03:25:43.113Z,100463.59
2023-05-20T03:40:33.990Z,100466.28
2023-05-20T03:55:24.482Z,100472.19
2023-05-20T04:10:16.603Z,100475.17
2023-05-20T04:25:07.503Z,100477.23
2023-05-20T04:39:59.641Z,100471.93
2023-05-20T04:54:51.776Z,100475.33
2023-05-20T05:09:43.293Z,100463.90
2023-05-20T05:39:26.710Z,100427.22
2023-05-20T05:54:22.726Z,100432.29
2023-05-20T06:09:12.812Z,100425.54
2023-05-20T06:24:05.785Z,100427.09
2023-05-20T06:38:59.507Z,100412.23
2023-05-20T06:53:51.640Z,100404.69
2023-05-20T07:08:44.998Z,100405.80
2023-05-20T07:23:38.362Z,100383.86
2023-05-20T07:38:39.467Z,100368.12
2023-05-20T07:53:32.495Z,100354.48
2023-05-20T08:08:24.580Z,100350.77
2023-05-20T08:23:19.143Z,100327.55
2023-05-20T08:38:11.686Z,100319.10
2023-05-20T08:53:05.346Z,100303.30
2023-05-20T09:08:05.410Z,100295.24
2023-05-20T09:23:05.899Z,100303.98
2023-05-20T09:38:00.457Z,100306.47
2023-05-20T09:52:53.605Z,100290.12
2023-05-20T10:08:07.459Z,100285.34
2023-05-20T10:23:08.183Z,100262.09
2023-05-20T10:38:08.983Z,100247.88
2023-05-20T10:53:05.149Z,100243.72
2023-05-20T11:08:06.131Z,100230.91
2023-05-20T11:23:00.655Z,100215.78
2023-05-20T11:37:54.812Z,100194.78
2023-05-20T11:52:55.139Z,100186.48
2023-05-20T12:07:48.422Z,100185.31
2023-05-20T12:22:43.884Z,100170.47
2023-05-20T12:37:36.778Z,100159.16
2023-05-20T12:52:29.359Z,100157.66
2023-05-20T13:07:22.322Z,100137.44
2023-05-20T13:22:16.078Z,100141.16
2023-05-20T13:37:11.523Z,100113.84
2023-05-20T13:52:03.643Z,100098.66
2023-05-20T14:06:56.558Z,100073.88
2023-05-20T14:21:47.213Z,100065.78
2023-05-20T14:36:39.336Z,100065.62
2023-05-20T14:51:31.047Z,100046.97
2023-05-20T15:36:27.527Z,100056.14
2023-05-20T16:06:17.301Z,100047.23
2023-05-20T16:21:07.357Z,100044.53
2023-05-20T16:35:59.671Z,100051.88
2023-05-20T16:50:51.839Z,100040.98
2023-05-20T17:05:44.375Z,100033.11
2023-05-20T17:20:39.147Z,100050.19
2023-05-20T17:35:31.794Z,100066.27
2023-05-20T17:50:22.600Z,100085.91
2023-05-20T18:05:18.234Z,100074.70
2023-05-20T18:20:08.691Z,100081.00
2023-05-20T19:34:34.021Z,100104.14
2023-05-20T20:04:17.862Z,100124.87
2023-05-20T20:19:08.993Z,100127.55
2023-05-20T20:34:05.383Z,100132.69
2023-05-20T20:48:54.463Z,100128.67
2023-05-20T21:03:46.337Z,100126.02
2023-05-20T21:18:38.324Z,100116.27
2023-05-20T21:33:30.967Z,100111.84
2023-05-20T21:48:23.089Z,100101.98
2023-05-20T22:03:15.322Z,100082.84
2023-05-20T22:18:07.984Z,100075.13
2023-05-20T22:32:58.562Z,100064.67
2023-05-20T22:47:49.808Z,100058.43
2023-05-20T23:02:42.100Z,100052.11
2023-05-20T23:17:35.137Z,100024.01
2023-05-20T23:32:28.848Z,100024.83
2023-05-20T23:47:20.936Z,100015.34
